sensor_id;sensor_type;location;lat;lon;timestamp;P1;durP1;ratioP1;P2;durP2;ratioP2
40150;SDS011;25866;52.420;10.640;2023-11-21T00:01:56;22.17;;;8.55;;
40150;SDS011;25866;52.420;10.640;2023-11-21T00:04:22;26.65;;;8.55;;
40150;SDS011;25866;52.420;10.640;2023-11-21T00:06:48;25.75;;;8.35;;
40150;SDS011;25866;52.420;10.640;2023-11-21T00:09:14;22.15;;;8.10;;
40150;SDS011;25866;52.420;10.640;2023-11-21T00:11:41;17.48;;;7.57;;
40150;SDS011;25866;52.420;10.640;2023-11-21T00:14:07;22.58;;;8.10;;
40150;SDS011;25866;52.420;10.640;2023-11-21T00:16:33;19.48;;;7.25;;
40150;SDS011;25866;52.420;10.640;2023-11-21T00:18:59;23.70;;;8.32;;
40150;SDS011;25866;52.420;10.640;2023-11-21T00:21:25;23.52;;;8.18;;
40150;SDS011;25866;52.420;10.640;2023-11-21T00:23:50;23.73;;;8.52;;
40150;SDS011;25866;52.420;10.640;2023-11-21T00:26:16;19.95;;;8.65;;
40150;SDS011;25866;52.420;10.640;2023-11-21T00:28:42;21.70;;;8.05;;
40150;SDS011;25866;52.420;10.640;2023-11-21T00:31:08;23.38;;;8.02;;
40150;SDS011;25866;52.420;10.640;2023-11-21T00:33:33;19.98;;;8.35;;
40150;SDS011;25866;52.420;10.640;2023-11-21T00:35:59;21.02;;;8.43;;
40150;SDS011;25866;52.420;10.640;2023-11-21T00:38:25;24.30;;;8.25;;
40150;SDS011;25866;52.420;10.640;2023-11-21T00:40:52;22.83;;;9.00;;
40150;SDS011;25866;52.420;10.640;2023-11-21T00:43:21;29.15;;;9.70;;
40150;SDS011;25866;52.420;10.640;2023-11-21T00:45:47;25.55;;;9.00;;
40150;SDS011;25866;52.420;10.640;2023-11-21T00:48:14;24.45;;;7.90;;
40150;SDS011;25866;52.420;10.640;2023-11-21T00:50:40;16.98;;;7.82;;
40150;SDS011;25866;52.420;10.640;2023-11-21T00:53:05;24.58;;;8.48;;
40150;SDS011;25866;52.420;10.640;2023-11-21T00:55:32;25.25;;;8.52;;
40150;SDS011;25866;52.420;10.640;2023-11-21T00:57:58;24.10;;;8.20;;
40150;SDS011;25866;52.420;10.640;2023-11-21T01:00:24;20.50;;;8.88;;
40150;SDS011;25866;52.420;10.640;2023-11-21T01:02:50;20.05;;;8.82;;
40150;SDS011;25866;52.420;10.640;2023-11-21T01:05:17;24.13;;;8.77;;
40150;SDS011;25866;52.420;10.640;2023-11-21T01:07:42;22.27;;;9.00;;
40150;SDS011;25866;52.420;10.640;2023-11-21T01:10:08;16.38;;;7.82;;
40150;SDS011;25866;52.420;10.640;2023-11-21T01:12:35;21.90;;;8.32;;
40150;SDS011;25866;52.420;10.640;2023-11-21T01:15:03;20.48;;;9.15;;
40150;SDS011;25866;52.420;10.640;2023-11-21T01:17:32;26.67;;;8.80;;
40150;SDS011;25866;52.420;10.640;2023-11-21T01:19:59;31.70;;;8.30;;
40150;SDS011;25866;52.420;10.640;2023-11-21T01:22:26;18.15;;;7.30;;
40150;SDS011;25866;52.420;10.640;2023-11-21T01:24:53;15.93;;;7.90;;
40150;SDS011;25866;52.420;10.640;2023-11-21T01:27:19;20.08;;;8.57;;
40150;SDS011;25866;52.420;10.640;2023-11-21T01:29:45;14.63;;;8.02;;
40150;SDS011;25866;52.420;10.640;2023-11-21T01:32:11;23.42;;;8.68;;
40150;SDS011;25866;52.420;10.640;2023-11-21T01:34:37;17.45;;;8.20;;
40150;SDS011;25866;52.420;10.640;2023-11-21T01:37:03;18.48;;;8.30;;
40150;SDS011;25866;52.420;10.640;2023-11-21T01:39:30;22.17;;;8.00;;
40150;SDS011;25866;52.420;10.640;2023-11-21T01:41:56;20.55;;;8.90;;
40150;SDS011;25866;52.420;10.640;2023-11-21T01:44:26;28.88;;;8.98;;
40150;SDS011;25866;52.420;10.640;2023-11-21T01:46:52;26.00;;;8.43;;
40150;SDS011;25866;52.420;10.640;2023-11-21T01:49:19;17.77;;;8.65;;
40150;SDS011;25866;52.420;10.640;2023-11-21T01:51:46;19.02;;;9.32;;
40150;SDS011;25866;52.420;10.640;2023-11-21T01:54:14;20.55;;;9.10;;
40150;SDS011;25866;52.420;10.640;2023-11-21T01:56:42;21.58;;;8.98;;
40150;SDS011;25866;52.420;10.640;2023-11-21T01:59:10;26.55;;;9.63;;
40150;SDS011;25866;52.420;10.640;2023-11-21T02:01:39;15.38;;;8.38;;
40150;SDS011;25866;52.420;10.640;2023-11-21T02:04:06;20.67;;;9.45;;
40150;SDS011;25866;52.420;10.640;2023-11-21T02:06:33;21.70;;;8.85;;
40150;SDS011;25866;52.420;10.640;2023-11-21T02:08:59;24.17;;;9.18;;
40150;SDS011;25866;52.420;10.640;2023-11-21T02:11:25;19.90;;;8.48;;
40150;SDS011;25866;52.420;10.640;2023-11-21T02:13:52;22.17;;;10.15;;
40150;SDS011;25866;52.420;10.640;2023-11-21T02:16:19;20.42;;;9.13;;
40150;SDS011;25866;52.420;10.640;2023-11-21T02:18:46;20.67;;;9.10;;
40150;SDS011;25866;52.420;10.640;2023-11-21T02:21:13;22.38;;;9.05;;
40150;SDS011;25866;52.420;10.640;2023-11-21T02:23:39;21.55;;;9.38;;
40150;SDS011;25866;52.420;10.640;2023-11-21T02:28:44;17.27;;;9.50;;
40150;SDS011;25866;52.420;10.640;2023-11-21T02:31:10;21.35;;;10.57;;
40150;SDS011;25866;52.420;10.640;2023-11-21T02:33:37;19.80;;;9.52;;
40150;SDS011;25866;52.420;10.640;2023-11-21T02:36:03;25.85;;;10.52;;
40150;SDS011;25866;52.420;10.640;2023-11-21T02:38:29;23.73;;;9.77;;
40150;SDS011;25866;52.420;10.640;2023-11-21T02:40:57;22.25;;;10.32;;
40150;SDS011;25866;52.420;10.640;2023-11-21T02:43:23;26.80;;;10.93;;
40150;SDS011;25866;52.420;10.640;2023-11-21T02:45:49;25.08;;;10.68;;
40150;SDS011;25866;52.420;10.640;2023-11-21T02:48:14;20.23;;;9.70;;
40150;SDS011;25866;52.420;10.640;2023-11-21T02:50:40;26.20;;;11.77;;
40150;SDS011;25866;52.420;10.640;2023-11-21T02:53:06;29.90;;;11.63;;
40150;SDS011;25866;52.420;10.640;2023-11-21T02:55:32;34.03;;;12.30;;
40150;SDS011;25866;52.420;10.640;2023-11-21T02:58:00;24.38;;;11.15;;
40150;SDS011;25866;52.420;10.640;2023-11-21T03:00:26;25.20;;;11.32;;
40150;SDS011;25866;52.420;10.640;2023-11-21T03:02:53;25.40;;;11.73;;
40150;SDS011;25866;52.420;10.640;2023-11-21T03:05:20;27.40;;;12.10;;
40150;SDS011;25866;52.420;10.640;2023-11-21T03:07:46;22.67;;;11.57;;
40150;SDS011;25866;52.420;10.640;2023-11-21T03:10:12;25.98;;;12.13;;
40150;SDS011;25866;52.420;10.640;2023-11-21T03:12:38;22.17;;;11.80;;
40150;SDS011;25866;52.420;10.640;2023-11-21T03:15:07;16.70;;;10.52;;
40150;SDS011;25866;52.420;10.640;2023-11-21T03:17:36;40.35;;;11.85;;
40150;SDS011;25866;52.420;10.640;2023-11-21T03:20:02;29.20;;;11.50;;
40150;SDS011;25866;52.420;10.640;2023-11-21T03:22:29;30.60;;;12.65;;
40150;SDS011;25866;52.420;10.640;2023-11-21T03:24:54;21.70;;;12.13;;
40150;SDS011;25866;52.420;10.640;2023-11-21T03:27:20;27.27;;;12.80;;
40150;SDS011;25866;52.420;10.640;2023-11-21T03:29:46;29.90;;;13.02;;
40150;SDS011;25866;52.420;10.640;2023-11-21T03:32:13;27.42;;;12.25;;
40150;SDS011;25866;52.420;10.640;2023-11-21T03:34:52;30.42;;;13.05;;
40150;SDS011;25866;52.420;10.640;2023-11-21T03:37:20;29.63;;;12.50;;
40150;SDS011;25866;52.420;10.640;2023-11-21T03:39:46;26.58;;;12.80;;
40150;SDS011;25866;52.420;10.640;2023-11-21T03:42:12;31.75;;;12.77;;
40150;SDS011;25866;52.420;10.640;2023-11-21T03:44:37;41.53;;;13.52;;
40150;SDS011;25866;52.420;10.640;2023-11-21T03:47:03;28.73;;;13.32;;
40150;SDS011;25866;52.420;10.640;2023-11-21T03:49:29;30.60;;;13.18;;
40150;SDS011;25866;52.420;10.640;2023-11-21T03:51:55;26.15;;;12.52;;
40150;SDS011;25866;52.420;10.640;2023-11-21T03:54:21;26.45;;;12.63;;
40150;SDS011;25866;52.420;10.640;2023-11-21T03:56:47;29.92;;;13.68;;
40150;SDS011;25866;52.420;10.640;2023-11-21T03:59:13;23.67;;;12.57;;
40150;SDS011;25866;52.420;10.640;2023-11-21T04:01:38;25.83;;;12.98;;
40150;SDS011;25866;52.420;10.640;2023-11-21T04:04:04;26.10;;;13.80;;
40150;SDS011;25866;52.420;10.640;2023-11-21T04:06:30;30.25;;;13.60;;
40150;SDS011;25866;52.420;10.640;2023-11-21T04:08:57;31.45;;;13.30;;
40150;SDS011;25866;52.420;10.640;2023-11-21T19:23:33;4.33;;;2.73;;
40150;SDS011;25866;52.420;10.640;2023-11-21T19:26:01;5.10;;;2.73;;
40150;SDS011;25866;52.420;10.640;2023-11-21T19:28:29;3.57;;;2.70;;
40150;SDS011;25866;52.420;10.640;2023-11-21T19:30:55;7.53;;;4.00;;
40150;SDS011;25866;52.420;10.640;2023-11-21T19:33:21;5.87;;;3.57;;
40150;SDS011;25866;52.420;10.640;2023-11-21T19:35:51;10.77;;;6.00;;
40150;SDS011;25866;52.420;10.640;2023-11-21T19:38:17;8.77;;;4.00;;
40150;SDS011;25866;52.420;10.640;2023-11-21T19:40:47;4.57;;;2.70;;
40150;SDS011;25866;52.420;10.640;2023-11-21T19:43:13;5.13;;;2.80;;
40150;SDS011;25866;52.420;10.640;2023-11-21T19:45:42;4.27;;;2.23;;
40150;SDS011;25866;52.420;10.640;2023-11-21T19:48:10;5.03;;;3.37;;
40150;SDS011;25866;52.420;10.640;2023-11-21T19:50:36;5.13;;;2.40;;
40150;SDS011;25866;52.420;10.640;2023-11-21T19:53:17;3.43;;;2.40;;
40150;SDS011;25866;52.420;10.640;2023-11-21T19:55:43;5.17;;;2.43;;
40150;SDS011;25866;52.420;10.640;2023-11-21T19:58:08;5.37;;;2.60;;
40150;SDS011;25866;52.420;10.640;2023-11-21T20:00:36;6.23;;;2.63;;
40150;SDS011;25866;52.420;10.640;2023-11-21T20:03:02;5.47;;;2.60;;
40150;SDS011;25866;52.420;10.640;2023-11-21T20:08:15;3.83;;;2.53;;
40150;SDS011;25866;52.420;10.640;2023-11-21T20:10:41;5.07;;;3.10;;
40150;SDS011;25866;52.420;10.640;2023-11-21T20:13:08;4.90;;;3.37;;
40150;SDS011;25866;52.420;10.640;2023-11-21T20:15:37;6.03;;;3.70;;
40150;SDS011;25866;52.420;10.640;2023-11-21T20:18:07;3.97;;;2.83;;
40150;SDS011;25866;52.420;10.640;2023-11-21T20:23:08;5.20;;;2.80;;
40150;SDS011;25866;52.420;10.640;2023-11-21T20:25:34;4.60;;;3.20;;
40150;SDS011;25866;52.420;10.640;2023-11-21T20:28:00;7.07;;;3.50;;
40150;SDS011;25866;52.420;10.640;2023-11-21T20:30:26;4.97;;;3.40;;
40150;SDS011;25866;52.420;10.640;2023-11-21T20:35:54;6.33;;;4.23;;
40150;SDS011;25866;52.420;10.640;2023-11-21T20:38:20;4.40;;;3.30;;
40150;SDS011;25866;52.420;10.640;2023-11-21T20:40:47;5.00;;;3.60;;
40150;SDS011;25866;52.420;10.640;2023-11-21T20:43:15;5.80;;;3.70;;
40150;SDS011;25866;52.420;10.640;2023-11-21T20:45:41;4.37;;;2.90;;
40150;SDS011;25866;52.420;10.640;2023-11-21T20:48:07;6.57;;;3.13;;
40150;SDS011;25866;52.420;10.640;2023-11-21T20:50:33;5.27;;;3.20;;
40150;SDS011;25866;52.420;10.640;2023-11-21T20:55:32;4.53;;;2.90;;
40150;SDS011;25866;52.420;10.640;2023-11-21T20:57:58;4.07;;;2.67;;
40150;SDS011;25866;52.420;10.640;2023-11-21T21:00:24;4.80;;;3.30;;
40150;SDS011;25866;52.420;10.640;2023-11-21T21:02:52;4.53;;;3.03;;
40150;SDS011;25866;52.420;10.640;2023-11-21T21:05:17;3.57;;;2.63;;
40150;SDS011;25866;52.420;10.640;2023-11-21T21:07:44;8.00;;;3.40;;
40150;SDS011;25866;52.420;10.640;2023-11-21T21:10:11;6.53;;;2.93;;
40150;SDS011;25866;52.420;10.640;2023-11-21T21:12:37;5.57;;;2.87;;
40150;SDS011;25866;52.420;10.640;2023-11-21T21:15:04;6.23;;;3.23;;
40150;SDS011;25866;52.420;10.640;2023-11-21T21:17:30;3.93;;;2.93;;
40150;SDS011;25866;52.420;10.640;2023-11-21T21:19:57;8.53;;;3.20;;
40150;SDS011;25866;52.420;10.640;2023-11-21T21:22:23;4.57;;;3.13;;
40150;SDS011;25866;52.420;10.640;2023-11-21T21:24:57;5.07;;;2.83;;
40150;SDS011;25866;52.420;10.640;2023-11-21T21:27:23;5.23;;;2.87;;
40150;SDS011;25866;52.420;10.640;2023-11-21T21:29:49;4.40;;;3.10;;
40150;SDS011;25866;52.420;10.640;2023-11-21T21:32:15;4.27;;;2.83;;
40150;SDS011;25866;52.420;10.640;2023-11-21T21:34:50;4.77;;;3.27;;
40150;SDS011;25866;52.420;10.640;2023-11-21T21:37:17;4.80;;;3.37;;
40150;SDS011;25866;52.420;10.640;2023-11-21T21:39:42;5.60;;;3.60;;
40150;SDS011;25866;52.420;10.640;2023-11-21T21:42:10;5.83;;;3.30;;
40150;SDS011;25866;52.420;10.640;2023-11-21T21:44:43;5.03;;;3.50;;
40150;SDS011;25866;52.420;10.640;2023-11-21T21:47:08;5.73;;;3.10;;
40150;SDS011;25866;52.420;10.640;2023-11-21T21:49:35;5.70;;;3.27;;
40150;SDS011;25866;52.420;10.640;2023-11-21T21:52:02;10.00;;;4.20;;
40150;SDS011;25866;52.420;10.640;2023-11-21T21:54:29;5.87;;;3.33;;
40150;SDS011;25866;52.420;10.640;2023-11-21T21:56:55;5.87;;;4.03;;
40150;SDS011;25866;52.420;10.640;2023-11-21T21:59:21;7.93;;;4.20;;
40150;SDS011;25866;52.420;10.640;2023-11-21T22:01:47;5.27;;;3.40;;
40150;SDS011;25866;52.420;10.640;2023-11-21T22:04:14;4.83;;;3.73;;
40150;SDS011;25866;52.420;10.640;2023-11-21T22:06:40;5.80;;;3.23;;
40150;SDS011;25866;52.420;10.640;2023-11-21T22:09:05;6.13;;;3.37;;
40150;SDS011;25866;52.420;10.640;2023-11-21T22:11:32;4.60;;;3.30;;
40150;SDS011;25866;52.420;10.640;2023-11-21T22:14:01;4.67;;;3.50;;
40150;SDS011;25866;52.420;10.640;2023-11-21T22:16:30;6.93;;;3.27;;
40150;SDS011;25866;52.420;10.640;2023-11-21T22:18:57;5.37;;;3.67;;
40150;SDS011;25866;52.420;10.640;2023-11-21T22:21:23;7.30;;;3.40;;
40150;SDS011;25866;52.420;10.640;2023-11-21T22:23:52;5.50;;;3.23;;
40150;SDS011;25866;52.420;10.640;2023-11-21T22:26:18;6.20;;;3.17;;
40150;SDS011;25866;52.420;10.640;2023-11-21T22:28:50;4.47;;;3.20;;
40150;SDS011;25866;52.420;10.640;2023-11-21T22:31:17;3.93;;;2.90;;
40150;SDS011;25866;52.420;10.640;2023-11-21T22:33:45;5.00;;;3.17;;
40150;SDS011;25866;52.420;10.640;2023-11-21T22:36:14;3.57;;;2.60;;
40150;SDS011;25866;52.420;10.640;2023-11-21T22:38:40;3.93;;;2.83;;
40150;SDS011;25866;52.420;10.640;2023-11-21T22:41:06;5.87;;;3.20;;
40150;SDS011;25866;52.420;10.640;2023-11-21T22:43:37;7.53;;;3.77;;
40150;SDS011;25866;52.420;10.640;2023-11-21T22:46:03;4.07;;;2.90;;
40150;SDS011;25866;52.420;10.640;2023-11-21T22:48:31;8.23;;;3.23;;
40150;SDS011;25866;52.420;10.640;2023-11-21T22:50:57;3.70;;;2.90;;
40150;SDS011;25866;52.420;10.640;2023-11-21T22:53:22;4.43;;;2.63;;
40150;SDS011;25866;52.420;10.640;2023-11-21T22:56:01;5.50;;;2.90;;
40150;SDS011;25866;52.420;10.640;2023-11-21T22:58:30;4.67;;;3.10;;
40150;SDS011;25866;52.420;10.640;2023-11-21T23:00:56;4.70;;;2.63;;
40150;SDS011;25866;52.420;10.640;2023-11-21T23:03:22;5.60;;;2.83;;
40150;SDS011;25866;52.420;10.640;2023-11-21T23:05:49;2.93;;;2.40;;
40150;SDS011;25866;52.420;10.640;2023-11-21T23:08:17;5.93;;;2.60;;
40150;SDS011;25866;52.420;10.640;2023-11-21T23:10:43;3.60;;;2.73;;
40150;SDS011;25866;52.420;10.640;2023-11-21T23:13:09;5.67;;;3.00;;
40150;SDS011;25866;52.420;10.640;2023-11-21T23:15:40;4.13;;;2.50;;
40150;SDS011;25866;52.420;10.640;2023-11-21T23:18:11;3.90;;;2.47;;
40150;SDS011;25866;52.420;10.640;2023-11-21T23:20:37;4.63;;;2.77;;
40150;SDS011;25866;52.420;10.640;2023-11-21T23:23:03;5.93;;;2.77;;
40150;SDS011;25866;52.420;10.640;2023-11-21T23:28:01;3.50;;;2.53;;
40150;SDS011;25866;52.420;10.640;2023-11-21T23:30:27;5.17;;;2.97;;
40150;SDS011;25866;52.420;10.640;2023-11-21T23:32:54;3.57;;;2.57;;
40150;SDS011;25866;52.420;10.640;2023-11-21T23:38:18;7.53;;;2.80;;
40150;SDS011;25866;52.420;10.640;2023-11-21T23:40:43;4.57;;;2.33;;
40150;SDS011;25866;52.420;10.640;2023-11-21T23:43:10;3.80;;;2.37;;
40150;SDS011;25866;52.420;10.640;2023-11-21T23:45:42;4.47;;;2.90;;
40150;SDS011;25866;52.420;10.640;2023-11-21T23:48:07;4.43;;;2.63;;
40150;SDS011;25866;52.420;10.640;2023-11-21T23:50:33;4.00;;;2.50;;
40150;SDS011;25866;52.420;10.640;2023-11-21T23:52:59;3.40;;;2.47;;
40150;SDS011;25866;52.420;10.640;2023-11-21T23:57:55;3.83;;;2.40;;
